createdAt,value
2018-09-25T00:01:25.476Z,8.83
2018-09-25T00:03:59.544Z,4.23
2018-09-25T00:06:33.594Z,3.20
2018-09-25T00:09:07.635Z,4.43
2018-09-25T00:11:41.689Z,4.97
2018-09-25T00:14:15.673Z,5.50
2018-09-25T00:16:49.821Z,4.70
2018-09-25T00:19:23.868Z,3.03
2018-09-25T00:21:58.040Z,3.90
2018-09-25T00:24:32.053Z,7.07
2018-09-25T00:27:06.138Z,6.10
2018-09-25T00:29:40.231Z,4.30
2018-09-25T00:32:14.285Z,3.47
2018-09-25T00:34:48.405Z,6.43
2018-09-25T00:37:22.644Z,3.17
2018-09-25T00:39:56.772Z,4.33
2018-09-25T00:42:30.874Z,3.13
2018-09-25T00:45:04.886Z,4.57
2018-09-25T00:47:38.985Z,5.77
2018-09-25T00:50:13.181Z,6.13
2018-09-25T00:52:47.299Z,4.03
2018-09-25T00:55:21.429Z,3.60
2018-09-25T00:57:55.530Z,3.80
2018-09-25T01:00:29.652Z,3.13
2018-09-25T01:03:03.713Z,3.87
2018-09-25T01:05:37.775Z,4.43
2018-09-25T01:08:11.865Z,2.87
2018-09-25T01:10:45.996Z,4.93
2018-09-25T01:13:20.070Z,2.90
2018-09-25T01:15:54.091Z,3.83
2018-09-25T01:18:28.059Z,4.50
2018-09-25T01:21:02.184Z,3.03
2018-09-25T01:23:36.308Z,5.17
2018-09-25T01:26:10.228Z,2.33
2018-09-25T01:28:44.309Z,2.67
2018-09-25T01:31:18.482Z,2.37
2018-09-25T01:33:52.652Z,2.40
2018-09-25T01:36:26.723Z,2.93
2018-09-25T01:39:00.724Z,3.40
2018-09-25T01:41:34.832Z,2.07
2018-09-25T01:44:08.940Z,2.93
2018-09-25T01:46:43.048Z,2.03
2018-09-25T01:49:17.067Z,2.67
2018-09-25T01:51:51.079Z,2.93
2018-09-25T01:54:25.163Z,4.20
2018-09-25T01:56:59.181Z,4.00
2018-09-25T01:59:33.325Z,3.57
2018-09-25T02:02:07.429Z,4.83
2018-09-25T02:04:41.492Z,2.20
2018-09-25T02:07:15.667Z,2.97
2018-09-25T02:09:49.769Z,3.30
2018-09-25T02:12:23.784Z,1.93
2018-09-25T02:14:57.772Z,3.03
2018-09-25T02:17:31.868Z,2.83
2018-09-25T02:20:06.013Z,2.53
2018-09-25T02:22:40.068Z,2.87
2018-09-25T02:25:14.247Z,4.13
2018-09-25T02:27:48.232Z,2.17
2018-09-25T02:30:22.381Z,3.03
2018-09-25T02:32:56.313Z,3.97
2018-09-25T02:35:30.518Z,3.43
2018-09-25T02:38:04.499Z,2.83
2018-09-25T02:40:38.615Z,5.53
2018-09-25T02:43:12.631Z,2.70
2018-09-25T02:45:46.659Z,3.43
2018-09-25T02:48:20.704Z,2.73
2018-09-25T02:50:54.708Z,2.57
2018-09-25T02:53:28.784Z,2.67
2018-09-25T02:56:02.944Z,1.83
2018-09-25T02:58:36.897Z,3.07
2018-09-25T03:01:10.992Z,2.33
2018-09-25T03:03:45.092Z,2.50
2018-09-25T03:06:19.248Z,2.47
2018-09-25T03:08:53.867Z,3.33
2018-09-25T03:11:27.885Z,3.17
2018-09-25T03:14:02.015Z,2.90
2018-09-25T03:16:36.093Z,2.00
2018-09-25T03:19:10.162Z,3.07
2018-09-25T03:21:44.189Z,6.27
2018-09-25T03:24:18.346Z,2.77
2018-09-25T03:26:52.301Z,3.80
2018-09-25T03:29:26.266Z,3.77
2018-09-25T03:32:00.157Z,2.40
2018-09-25T03:34:34.176Z,2.77
2018-09-25T03:37:08.363Z,2.80
2018-09-25T03:39:42.556Z,2.37
2018-09-25T03:42:16.610Z,2.50
2018-09-25T03:44:50.941Z,4.27
2018-09-25T03:47:25.024Z,2.87
2018-09-25T03:49:59.003Z,2.80
2018-09-25T03:52:33.044Z,4.07
2018-09-25T03:55:07.136Z,3.37
2018-09-25T03:57:41.189Z,4.40
2018-09-25T04:00:14.805Z,4.67
2018-09-25T04:02:48.773Z,4.50
2018-09-25T04:05:22.787Z,4.97
2018-09-25T04:07:56.873Z,4.50
2018-09-25T04:10:31.606Z,4.80
2018-09-25T04:13:05.580Z,5.73
2018-09-25T04:15:39.652Z,5.07
2018-09-25T04:18:13.566Z,3.53
2018-09-25T04:20:47.634Z,4.23
2018-09-25T04:23:21.728Z,3.50
2018-09-25T04:25:55.777Z,4.00
2018-09-25T04:28:29.903Z,3.40
2018-09-25T04:31:03.987Z,2.93
2018-09-25T04:33:38.212Z,3.40
2018-09-25T04:36:12.380Z,3.90
2018-09-25T04:38:46.448Z,5.40
2018-09-25T04:41:20.535Z,2.90
2018-09-25T04:43:54.647Z,6.50
2018-09-25T04:46:28.640Z,3.83
2018-09-25T04:49:02.661Z,4.13
2018-09-25T04:51:36.744Z,1.97
2018-09-25T04:54:10.912Z,2.90
2018-09-25T04:56:45.132Z,3.90
2018-09-25T04:59:19.219Z,3.07
2018-09-25T05:01:53.365Z,4.50
2018-09-25T05:04:28.628Z,4.30
2018-09-25T05:07:02.893Z,8.13
2018-09-25T05:09:37.123Z,4.03
2018-09-25T05:12:11.417Z,3.53
2018-09-25T05:14:45.552Z,4.83
2018-09-25T05:17:19.599Z,7.00
2018-09-25T05:19:53.912Z,1.70
2018-09-25T05:22:28.127Z,4.73
2018-09-25T05:25:02.373Z,4.97
2018-09-25T05:27:36.450Z,3.63
2018-09-25T05:30:11.106Z,4.43
2018-09-25T05:32:45.247Z,4.20
2018-09-25T05:35:19.435Z,4.13
2018-09-25T05:37:53.608Z,3.20
2018-09-25T05:40:27.634Z,4.70
2018-09-25T05:43:02.182Z,4.43
2018-09-25T05:45:36.349Z,3.80
2018-09-25T05:48:10.658Z,2.20
2018-09-25T05:50:44.826Z,6.73
2018-09-25T05:53:18.923Z,5.13
2018-09-25T05:55:53.058Z,4.33
2018-09-25T05:58:27.065Z,3.90
2018-09-25T06:01:01.133Z,4.13
2018-09-25T06:03:35.249Z,4.27
2018-09-25T06:06:09.417Z,4.33
2018-09-25T06:08:43.667Z,4.40
2018-09-25T06:11:19.806Z,6.60
2018-09-25T06:13:53.966Z,6.77
2018-09-25T06:16:27.964Z,4.77
2018-09-25T06:19:02.156Z,5.80
2018-09-25T06:21:36.218Z,10.87
2018-09-25T06:24:10.236Z,8.57
2018-09-25T06:26:44.239Z,4.60
2018-09-25T06:29:18.356Z,4.47
2018-09-25T06:31:52.397Z,8.17
2018-09-25T06:34:26.627Z,4.33
2018-09-25T06:37:00.708Z,3.47
2018-09-25T06:39:34.905Z,2.43
2018-09-25T06:42:08.877Z,2.80
2018-09-25T06:44:42.879Z,2.30
2018-09-25T06:47:17.050Z,5.90
2018-09-25T06:49:51.136Z,4.30
2018-09-25T06:52:25.188Z,3.70
2018-09-25T06:54:59.500Z,7.47
2018-09-25T06:57:33.489Z,4.30
2018-09-25T07:00:07.614Z,5.33
2018-09-25T07:02:41.706Z,4.73
2018-09-25T07:05:15.910Z,3.30
2018-09-25T07:07:49.878Z,4.70
2018-09-25T07:10:24.210Z,2.33
2018-09-25T07:12:58.248Z,6.10
2018-09-25T07:15:33.219Z,3.17
2018-09-25T07:18:07.334Z,2.77
2018-09-25T07:20:41.464Z,2.27
2018-09-25T07:23:15.548Z,2.40
2018-09-25T07:25:49.678Z,3.07
2018-09-25T07:28:23.896Z,2.83
2018-09-25T07:30:58.002Z,6.90
2018-09-25T07:33:32.124Z,4.03
2018-09-25T07:36:06.205Z,4.70
2018-09-25T07:38:40.225Z,3.00
2018-09-25T07:41:14.504Z,4.03
2018-09-25T07:43:48.650Z,2.93
2018-09-25T07:46:22.786Z,6.07
2018-09-25T07:48:56.804Z,5.47
2018-09-25T07:51:30.967Z,3.50
2018-09-25T07:54:05.049Z,3.97
2018-09-25T07:56:39.218Z,3.67
2018-09-25T07:59:13.276Z,4.07
2018-09-25T08:01:47.500Z,2.07
2018-09-25T08:04:21.594Z,2.47
2018-09-25T08:06:55.725Z,2.67
2018-09-25T08:09:29.732Z,2.27
2018-09-25T08:12:04.878Z,3.57
2018-09-25T08:14:38.968Z,1.73
2018-09-25T08:17:12.979Z,3.80
2018-09-25T08:19:46.908Z,4.00
2018-09-25T08:22:21.057Z,3.50
2018-09-25T08:24:55.149Z,5.20
2018-09-25T08:27:29.209Z,3.33
2018-09-25T08:30:03.274Z,3.30
2018-09-25T08:32:37.283Z,2.70
2018-09-25T08:35:11.365Z,2.70
2018-09-25T08:37:45.436Z,1.90
2018-09-25T08:40:19.508Z,3.33
2018-09-25T08:42:53.644Z,2.53
2018-09-25T08:45:27.743Z,2.17
2018-09-25T08:48:01.783Z,3.53
2018-09-25T08:50:35.820Z,1.50
2018-09-25T08:53:10.005Z,6.97
2018-09-25T08:55:44.163Z,5.27
2018-09-25T08:58:18.207Z,3.77
2018-09-25T09:00:52.303Z,2.03
2018-09-25T09:03:26.443Z,1.23
2018-09-25T09:06:00.562Z,1.50
2018-09-25T09:08:34.753Z,2.43
2018-09-25T09:11:08.830Z,2.00
2018-09-25T09:13:42.919Z,2.57
2018-09-25T09:16:16.955Z,2.90
2018-09-25T09:18:51.057Z,2.30
2018-09-25T09:21:25.101Z,1.83
2018-09-25T09:23:59.280Z,2.77
2018-09-25T09:26:33.421Z,2.37
2018-09-25T09:29:07.635Z,2.40
2018-09-25T09:31:41.674Z,3.20
2018-09-25T09:34:15.770Z,1.53
2018-09-25T09:36:49.843Z,1.87
2018-09-25T09:39:23.941Z,2.23
2018-09-25T09:41:58.320Z,1.63
2018-09-25T09:44:32.286Z,2.33
2018-09-25T09:47:06.443Z,2.47
2018-09-25T09:49:40.472Z,5.67
2018-09-25T09:52:14.574Z,3.10
2018-09-25T09:54:48.708Z,4.07
2018-09-25T09:57:22.870Z,3.07
2018-09-25T09:59:56.959Z,5.93
2018-09-25T10:02:31.028Z,3.77
2018-09-25T10:05:05.161Z,4.10
2018-09-25T10:07:39.141Z,2.13
2018-09-25T10:10:13.356Z,5.60
2018-09-25T10:12:47.385Z,2.80
2018-09-25T10:15:21.352Z,6.33
2018-09-25T10:17:55.367Z,3.17
2018-09-25T10:20:29.488Z,2.67
2018-09-25T10:23:03.591Z,2.00
2018-09-25T10:25:37.779Z,4.17
2018-09-25T10:28:11.800Z,3.63
2018-09-25T10:30:45.928Z,3.30
2018-09-25T10:33:19.939Z,3.47
2018-09-25T10:35:54.137Z,3.60
2018-09-25T10:38:28.235Z,2.57
2018-09-25T10:41:02.472Z,3.20
2018-09-25T10:43:36.533Z,3.97
2018-09-25T10:46:10.608Z,2.90
2018-09-25T10:48:44.533Z,1.27
2018-09-25T10:51:18.712Z,4.07
2018-09-25T10:53:52.855Z,1.57
2018-09-25T10:56:26.957Z,3.87
2018-09-25T10:59:01.080Z,1.57
2018-09-25T11:01:35.206Z,1.93
2018-09-25T11:04:09.291Z,1.60
2018-09-25T11:06:43.426Z,1.30
2018-09-25T11:09:17.370Z,1.30
2018-09-25T11:11:51.468Z,4.90
2018-09-25T11:14:25.535Z,3.40
2018-09-25T11:16:59.682Z,3.30
2018-09-25T11:19:33.609Z,2.57
2018-09-25T11:22:07.670Z,6.77
2018-09-25T11:24:41.720Z,8.27
2018-09-25T11:27:15.884Z,2.63
2018-09-25T11:29:49.823Z,6.33
2018-09-25T11:32:23.963Z,3.97
2018-09-25T11:34:58.005Z,2.13
2018-09-25T11:37:32.191Z,2.83
2018-09-25T11:40:06.335Z,3.67
2018-09-25T11:42:40.464Z,2.83
2018-09-25T11:45:14.516Z,3.67
2018-09-25T11:47:48.612Z,2.57
2018-09-25T11:50:22.785Z,1.80
2018-09-25T11:52:57.019Z,4.30
2018-09-25T11:55:31.156Z,4.73
2018-09-25T11:58:05.313Z,2.70
2018-09-25T12:00:39.456Z,5.93
2018-09-25T12:03:13.352Z,4.00
2018-09-25T12:05:47.302Z,4.93
2018-09-25T12:08:21.405Z,2.10
2018-09-25T12:10:55.572Z,5.53
2018-09-25T12:13:29.642Z,3.17
2018-09-25T12:16:03.797Z,4.43
2018-09-25T12:18:37.948Z,1.90
2018-09-25T12:21:12.322Z,2.77
2018-09-25T12:23:46.288Z,3.13
2018-09-25T12:26:20.404Z,2.00
2018-09-25T12:28:54.511Z,1.67
2018-09-25T12:31:28.673Z,1.67
2018-09-25T12:34:02.745Z,2.23
2018-09-25T12:36:37.016Z,2.90
2018-09-25T12:39:12.966Z,2.27
2018-09-25T12:41:47.240Z,4.67
2018-09-25T12:44:21.247Z,6.73
2018-09-25T12:46:55.378Z,4.67
2018-09-25T12:49:29.418Z,9.83
2018-09-25T12:52:03.642Z,5.30
2018-09-25T12:54:37.712Z,2.63
2018-09-25T12:57:12.077Z,2.30
2018-09-25T12:59:46.085Z,6.60
2018-09-25T13:02:20.101Z,2.97
2018-09-25T13:04:54.157Z,2.37
2018-09-25T13:07:28.266Z,6.10
2018-09-25T13:10:02.266Z,4.97
2018-09-25T13:12:36.528Z,3.80
2018-09-25T13:15:10.601Z,4.60
2018-09-25T13:17:44.752Z,11.57
2018-09-25T13:20:18.755Z,11.53
2018-09-25T13:22:52.978Z,9.87
2018-09-25T13:25:27.090Z,5.90
2018-09-25T13:28:01.255Z,7.37
2018-09-25T13:30:35.385Z,5.33
2018-09-25T13:33:09.486Z,4.03
2018-09-25T13:35:43.380Z,5.53
2018-09-25T13:38:17.621Z,4.40
2018-09-25T13:40:51.737Z,3.23
2018-09-25T13:43:25.864Z,2.47
2018-09-25T13:46:00.047Z,4.73
2018-09-25T13:48:34.046Z,5.43
2018-09-25T13:51:08.167Z,3.00
2018-09-25T13:53:42.435Z,7.07
2018-09-25T13:56:16.545Z,6.13
2018-09-25T13:58:50.707Z,8.27
2018-09-25T14:01:24.900Z,7.73
2018-09-25T14:03:58.978Z,2.77
2018-09-25T14:06:33.075Z,3.57
2018-09-25T14:09:07.108Z,4.50
2018-09-25T14:11:41.140Z,7.30
2018-09-25T14:14:15.291Z,4.57
2018-09-25T14:16:49.371Z,6.57
2018-09-25T14:19:23.403Z,8.47
2018-09-25T14:21:57.445Z,4.27
2018-09-25T14:24:31.521Z,3.83
2018-09-25T14:27:05.723Z,3.57
2018-09-25T14:29:39.782Z,8.43
2018-09-25T14:32:13.830Z,5.27
2018-09-25T14:34:48.000Z,3.63
2018-09-25T14:37:22.204Z,3.23
2018-09-25T14:39:56.460Z,4.23
2018-09-25T14:42:30.559Z,2.63
2018-09-25T14:45:04.551Z,2.17
2018-09-25T14:47:38.625Z,2.80
2018-09-25T14:50:12.762Z,2.03
2018-09-25T14:52:46.820Z,3.43
2018-09-25T14:55:20.897Z,5.03
2018-09-25T14:57:54.891Z,1.97
2018-09-25T15:03:08.740Z,3.27
2018-09-25T15:05:43.150Z,3.83
2018-09-25T15:08:17.214Z,2.30
2018-09-25T15:10:51.353Z,2.83
2018-09-25T15:13:25.380Z,6.00
2018-09-25T15:15:59.509Z,3.20
2018-09-25T15:18:33.560Z,4.70
2018-09-25T15:21:07.688Z,3.00
2018-09-25T15:23:41.789Z,2.73
2018-09-25T15:26:15.829Z,4.90
2018-09-25T15:28:50.144Z,3.60
2018-09-25T15:31:24.247Z,5.83
2018-09-25T15:33:58.387Z,3.57
2018-09-25T15:36:32.611Z,10.17
2018-09-25T15:39:07.048Z,6.40
2018-09-25T15:41:43.763Z,6.60
2018-09-25T15:44:17.875Z,7.93
2018-09-25T15:46:51.888Z,4.90
2018-09-25T15:49:25.967Z,6.20
2018-09-25T15:52:00.000Z,5.97
2018-09-25T15:54:34.210Z,6.57
2018-09-25T15:57:08.349Z,5.33
2018-09-25T15:59:42.316Z,7.83
2018-09-25T16:02:16.532Z,5.53
2018-09-25T16:04:50.705Z,6.60
2018-09-25T16:07:24.866Z,5.63
2018-09-25T16:09:58.875Z,14.20
2018-09-25T16:12:33.755Z,4.47
2018-09-25T16:15:07.727Z,9.27
2018-09-25T16:17:41.831Z,8.63
2018-09-25T16:20:16.039Z,6.20
2018-09-25T16:22:50.091Z,6.40
2018-09-25T16:25:24.232Z,7.90
2018-09-25T16:27:58.403Z,8.87
2018-09-25T16:30:32.610Z,5.40
2018-09-25T16:33:06.574Z,7.97
2018-09-25T16:35:40.854Z,5.90
2018-09-25T16:38:14.892Z,7.60
2018-09-25T16:40:49.074Z,7.80
2018-09-25T16:43:23.220Z,13.53
2018-09-25T16:45:57.648Z,11.97
2018-09-25T16:48:31.633Z,15.97
2018-09-25T16:51:05.765Z,16.17
2018-09-25T16:53:39.963Z,18.30
2018-09-25T16:56:14.273Z,20.63
2018-09-25T16:58:48.364Z,20.17
2018-09-25T17:01:22.462Z,24.87
2018-09-25T17:03:56.616Z,20.43
2018-09-25T17:06:30.790Z,22.33
2018-09-25T17:09:05.032Z,23.07
2018-09-25T17:11:39.137Z,20.03
2018-09-25T17:14:13.203Z,21.93
2018-09-25T17:16:47.259Z,19.17
2018-09-25T17:19:21.562Z,20.40
2018-09-25T17:21:55.787Z,17.67
2018-09-25T17:24:37.008Z,18.17
2018-09-25T17:27:11.089Z,23.47
2018-09-25T17:29:45.213Z,21.77
2018-09-25T17:32:19.310Z,28.60
2018-09-25T17:34:53.439Z,28.97
2018-09-25T17:37:27.525Z,29.83
2018-09-25T17:40:01.754Z,33.73
2018-09-25T17:42:35.832Z,33.87
2018-09-25T17:45:10.040Z,35.43
2018-09-25T17:47:44.236Z,33.07
2018-09-25T17:50:18.309Z,26.80
2018-09-25T17:52:52.407Z,31.23
2018-09-25T17:55:26.524Z,33.47
2018-09-25T17:58:00.670Z,29.47
2018-09-25T18:00:35.469Z,31.43
2018-09-25T18:03:10.041Z,27.63
2018-09-25T18:05:44.142Z,30.70
2018-09-25T18:08:19.358Z,31.57
2018-09-25T18:10:53.436Z,32.37
2018-09-25T18:13:27.493Z,39.70
2018-09-25T18:16:01.688Z,37.90
2018-09-25T18:18:35.723Z,44.43
2018-09-25T18:21:09.804Z,46.37
2018-09-25T18:23:44.018Z,51.23
2018-09-25T18:26:18.105Z,50.40
2018-09-25T18:28:52.347Z,46.13
2018-09-25T18:31:27.028Z,43.37
2018-09-25T18:34:01.312Z,46.57
2018-09-25T18:36:35.535Z,51.27
2018-09-25T18:39:11.112Z,53.30
2018-09-25T18:44:53.643Z,57.57
2018-09-25T18:47:28.429Z,48.63
2018-09-25T18:50:02.546Z,36.37
2018-09-25T18:52:36.738Z,30.97
2018-09-25T18:55:11.910Z,42.73
2018-09-25T18:57:46.130Z,33.53
2018-09-25T19:00:20.869Z,29.37
2018-09-25T19:02:54.969Z,26.07
2018-09-25T19:05:29.377Z,28.83
2018-09-25T19:08:03.502Z,28.50
2018-09-25T19:10:37.663Z,26.10
2018-09-25T19:13:11.793Z,24.23
2018-09-25T19:15:46.603Z,26.03
2018-09-25T19:18:20.814Z,24.97
2018-09-25T19:20:55.197Z,25.20
2018-09-25T19:23:29.301Z,25.50
2018-09-25T19:26:03.412Z,27.40
2018-09-25T19:28:37.524Z,29.67
2018-09-25T19:31:11.552Z,30.73
2018-09-25T19:33:45.752Z,35.13
2018-09-25T19:36:19.856Z,33.40
2018-09-25T19:38:54.065Z,44.43
2018-09-25T19:41:28.126Z,42.37
2018-09-25T19:44:05.601Z,49.27
2018-09-25T19:46:39.990Z,55.23
2018-09-25T19:49:14.472Z,58.90
2018-09-25T19:51:48.668Z,55.60
2018-09-25T19:54:24.290Z,61.67
2018-09-25T19:56:58.505Z,58.50
2018-09-25T19:59:33.708Z,62.30
2018-09-25T20:02:07.849Z,59.87
2018-09-25T20:04:41.938Z,61.80
2018-09-25T20:07:16.085Z,59.90
2018-09-25T20:09:50.263Z,65.30
2018-09-25T20:12:24.445Z,59.80
2018-09-25T20:14:58.635Z,62.50
2018-09-25T20:17:32.730Z,67.53
2018-09-25T20:20:06.783Z,72.13
2018-09-25T20:22:40.927Z,64.50
2018-09-25T20:25:15.055Z,64.60
2018-09-25T20:27:51.036Z,64.50
2018-09-25T20:30:25.241Z,69.80
2018-09-25T20:32:59.291Z,59.43
2018-09-25T20:35:34.488Z,59.53
2018-09-25T20:38:08.759Z,61.07
2018-09-25T20:40:43.093Z,82.53
2018-09-25T20:43:18.499Z,85.70
2018-09-25T20:45:52.705Z,105.90
2018-09-25T20:48:26.716Z,108.53
2018-09-25T20:51:00.838Z,97.47
2018-09-25T20:53:35.137Z,100.83
2018-09-25T20:56:09.220Z,91.30
2018-09-25T20:58:44.678Z,70.03
2018-09-25T21:01:18.967Z,70.37
2018-09-25T21:03:53.184Z,77.43
2018-09-25T21:06:27.381Z,91.93
2018-09-25T21:09:01.781Z,96.33
2018-09-25T21:11:36.256Z,98.73
2018-09-25T21:14:13.061Z,86.03
2018-09-25T21:16:47.112Z,74.73
2018-09-25T21:19:21.229Z,64.67
2018-09-25T21:21:55.675Z,73.00
2018-09-25T21:24:29.718Z,70.33
2018-09-25T21:27:03.937Z,58.90
2018-09-25T21:29:39.213Z,52.67
2018-09-25T21:32:13.338Z,54.37
2018-09-25T21:34:47.527Z,48.77
2018-09-25T21:37:21.911Z,52.33
2018-09-25T21:39:56.030Z,47.27
2018-09-25T21:42:31.357Z,45.77
2018-09-25T21:45:05.509Z,41.83
2018-09-25T21:47:39.587Z,45.97
2018-09-25T21:50:13.752Z,39.90
2018-09-25T21:52:47.958Z,38.27
2018-09-25T21:55:22.073Z,37.30
2018-09-25T21:57:56.372Z,38.90
2018-09-25T22:00:30.511Z,39.00
2018-09-25T22:03:04.636Z,38.57
2018-09-25T22:05:38.806Z,34.33
2018-09-25T22:08:17.122Z,32.47
2018-09-25T22:10:51.385Z,30.80
2018-09-25T22:13:25.500Z,30.43
2018-09-25T22:15:59.764Z,31.87
2018-09-25T22:18:34.100Z,39.47
2018-09-25T22:21:08.224Z,38.43
2018-09-25T22:23:42.385Z,31.90
2018-09-25T22:26:17.075Z,31.80
2018-09-25T22:28:51.296Z,35.30
2018-09-25T22:31:25.300Z,35.00
2018-09-25T22:33:59.448Z,33.87
2018-09-25T22:36:33.445Z,36.27
2018-09-25T22:39:07.643Z,37.30
2018-09-25T22:41:41.664Z,30.20
2018-09-25T22:44:15.882Z,30.83
2018-09-25T22:46:49.965Z,31.40
2018-09-25T22:49:24.180Z,33.17
2018-09-25T22:51:58.240Z,32.07
2018-09-25T22:54:32.237Z,27.67
2018-09-25T22:57:06.332Z,26.73
2018-09-25T22:59:40.518Z,33.90
2018-09-25T23:02:14.690Z,24.67
2018-09-25T23:04:48.823Z,30.00
2018-09-25T23:07:22.925Z,23.10
2018-09-25T23:09:57.142Z,23.37
2018-09-25T23:12:31.156Z,20.30
2018-09-25T23:15:05.242Z,21.23
2018-09-25T23:17:39.436Z,20.60
2018-09-25T23:20:13.590Z,24.80
2018-09-25T23:22:47.712Z,18.83
2018-09-25T23:25:21.749Z,23.10
2018-09-25T23:27:55.840Z,22.67
2018-09-25T23:30:30.046Z,28.77
2018-09-25T23:33:04.032Z,21.20
2018-09-25T23:35:38.266Z,17.83
2018-09-25T23:38:12.295Z,16.87
2018-09-25T23:40:48.263Z,20.20
2018-09-25T23:43:30.449Z,18.53
2018-09-25T23:48:06.771Z,18.03
2018-09-25T23:50:41.688Z,19.23
2018-09-25T23:53:15.712Z,19.77
2018-09-25T23:55:52.920Z,22.80
2018-09-25T23:58:25.201Z,20.57
